Decoded Metar for YSWG (WAGGA WAGGA in AUSTRALIA) (IATA:WGA) | Meteo·Mobile Aviation Weather
aviador You're here:

YSWG Decoded Metar

WAGGA WAGGA in AUSTRALIA
Report Time2018-10-17 03:00:00
UTC Time2018-10-17 03:33:39
Flight Rules vfr VFR
Wind320° at 06 kt
W.Decomp.*RWY 30: 5.9 kt HW 0.8 kt RCW
RWY 23: 1.2 kt HW 5.9 kt RCW
W.Rank320° ranks 24
Current wind is below 320° avg. (6.9)
Visibility9999 m
Phenomena:Vicinity showers
Clouds:Scattered 030 Hf
Expected CloudBase > 3,200 ft AGL from Temp-Dew spread
CeilingNone
Temp23°C (ISA +9)
Dew Point15°C (61% RH)
AAT22.5°C
QNH1014 hPa
Density Alt1,985 ft
Elevation699 ft
Report Wrong Elevation
Raw Report
YSWG 170300Z 32006KT 280V350 9999 VCSH SCT030 23/15 Q1014=

Extra information for YSWG:More info

Metar Taf Metar & Taf Last 4 Metars F.Rules Stats Wind Profile Meteogram Temp Stats Airport Information Weather charts Add Link Nearby VenuesMetar ALERT Operation Metar Decoded Social comments